sensor_id;sensor_type;location;lat;lon;timestamp;pressure;altitude;pressure_sealevel;temperature;humidity
51299;BME280;37382;45.192;9.790;2024-03-07T00:00:13;101394.94;;;9.53;100.00
51299;BME280;37382;45.192;9.790;2024-03-07T00:02:50;101392.69;;;9.08;100.00
51299;BME280;37382;45.192;9.790;2024-03-07T00:05:21;101404.69;;;9.22;100.00
51299;BME280;37382;45.192;9.790;2024-03-07T00:07:53;101400.94;;;9.32;100.00
51299;BME280;37382;45.192;9.790;2024-03-07T00:10:20;101406.03;;;9.35;100.00
51299;BME280;37382;45.192;9.790;2024-03-07T00:12:48;101403.97;;;9.53;100.00
51299;BME280;37382;45.192;9.790;2024-03-07T00:15:17;101404.94;;;9.60;100.00
51299;BME280;37382;45.192;9.790;2024-03-07T00:17:45;101406.44;;;9.71;100.00
51299;BME280;37382;45.192;9.790;2024-03-07T00:20:12;101404.59;;;9.72;100.00
51299;BME280;37382;45.192;9.790;2024-03-07T00:22:47;101395.56;;;9.71;100.00
51299;BME280;37382;45.192;9.790;2024-03-07T00:25:14;101406.44;;;9.71;100.00
51299;BME280;37382;45.192;9.790;2024-03-07T00:27:46;101403.41;;;9.66;100.00
51299;BME280;37382;45.192;9.790;2024-03-07T00:30:14;101400.81;;;9.73;100.00
51299;BME280;37382;45.192;9.790;2024-03-07T00:32:48;101399.63;;;9.75;100.00
51299;BME280;37382;45.192;9.790;2024-03-07T00:35:16;101400.16;;;9.79;100.00
51299;BME280;37382;45.192;9.790;2024-03-07T00:37:44;101403.69;;;9.79;100.00
51299;BME280;37382;45.192;9.790;2024-03-07T00:40:11;101397.75;;;9.76;100.00
51299;BME280;37382;45.192;9.790;2024-03-07T00:42:39;101400.16;;;9.79;100.00
51299;BME280;37382;45.192;9.790;2024-03-07T00:45:07;101407.81;;;9.67;100.00
51299;BME280;37382;45.192;9.790;2024-03-07T00:47:34;101406.28;;;9.65;100.00
51299;BME280;37382;45.192;9.790;2024-03-07T00:50:02;101403.09;;;9.61;100.00
51299;BME280;37382;45.192;9.790;2024-03-07T00:52:29;101399.16;;;9.72;100.00
51299;BME280;37382;45.192;9.790;2024-03-07T00:54:57;101396.44;;;9.72;100.00
51299;BME280;37382;45.192;9.790;2024-03-07T00:57:25;101399.97;;;9.72;100.00
51299;BME280;37382;45.192;9.790;2024-03-07T00:59:52;101400.50;;;9.68;100.00
51299;BME280;37382;45.192;9.790;2024-03-07T01:02:19;101401.16;;;9.70;100.00
51299;BME280;37382;45.192;9.790;2024-03-07T01:04:47;101396.72;;;9.77;100.00
51299;BME280;37382;45.192;9.790;2024-03-07T01:07:15;101404.34;;;9.82;100.00
51299;BME280;37382;45.192;9.790;2024-03-07T01:09:43;101393.91;;;10.02;100.00
51299;BME280;37382;45.192;9.790;2024-03-07T01:12:10;101405.34;;;9.89;100.00
51299;BME280;37382;45.192;9.790;2024-03-07T01:14:38;101392.13;;;9.86;100.00
51299;BME280;37382;45.192;9.790;2024-03-07T01:17:06;101391.94;;;9.87;100.00
51299;BME280;37382;45.192;9.790;2024-03-07T01:19:35;101394.78;;;9.94;100.00
51299;BME280;37382;45.192;9.790;2024-03-07T01:22:03;101387.81;;;10.00;100.00
51299;BME280;37382;45.192;9.790;2024-03-07T01:24:30;101384.50;;;9.81;100.00
51299;BME280;37382;45.192;9.790;2024-03-07T01:26:58;101392.28;;;9.84;100.00
51299;BME280;37382;45.192;9.790;2024-03-07T01:29:27;101383.66;;;9.81;100.00
51299;BME280;37382;45.192;9.790;2024-03-07T01:31:55;101385.88;;;9.77;100.00
51299;BME280;37382;45.192;9.790;2024-03-07T01:34:22;101385.03;;;9.68;100.00
51299;BME280;37382;45.192;9.790;2024-03-07T01:36:49;101380.72;;;9.51;100.00
51299;BME280;37382;45.192;9.790;2024-03-07T01:39:17;101374.13;;;9.37;100.00
51299;BME280;37382;45.192;9.790;2024-03-07T01:41:45;101378.00;;;9.51;100.00
51299;BME280;37382;45.192;9.790;2024-03-07T01:44:12;101374.97;;;9.37;100.00
51299;BME280;37382;45.192;9.790;2024-03-07T01:46:40;101372.91;;;9.48;100.00
51299;BME280;37382;45.192;9.790;2024-03-07T01:49:09;101366.28;;;9.50;100.00
51299;BME280;37382;45.192;9.790;2024-03-07T01:51:37;101363.75;;;9.49;100.00
51299;BME280;37382;45.192;9.790;2024-03-07T01:54:08;101362.34;;;9.53;100.00
51299;BME280;37382;45.192;9.790;2024-03-07T01:56:36;101354.75;;;9.48;100.00
51299;BME280;37382;45.192;9.790;2024-03-07T01:59:05;101352.38;;;9.45;100.00
51299;BME280;37382;45.192;9.790;2024-03-07T02:01:34;101353.72;;;9.49;100.00
51299;BME280;37382;45.192;9.790;2024-03-07T02:04:04;101353.13;;;9.31;100.00
51299;BME280;37382;45.192;9.790;2024-03-07T02:06:33;101349.69;;;9.37;100.00
51299;BME280;37382;45.192;9.790;2024-03-07T02:09:00;101345.94;;;9.46;100.00
51299;BME280;37382;45.192;9.790;2024-03-07T02:11:29;101343.75;;;9.41;100.00
51299;BME280;37382;45.192;9.790;2024-03-07T02:13:57;101348.66;;;9.46;100.00
51299;BME280;37382;45.192;9.790;2024-03-07T02:16:25;101347.81;;;9.46;100.00
51299;BME280;37382;45.192;9.790;2024-03-07T02:18:53;101348.34;;;9.33;100.00
51299;BME280;37382;45.192;9.790;2024-03-07T02:21:22;101339.41;;;9.16;100.00
51299;BME280;37382;45.192;9.790;2024-03-07T02:23:50;101341.94;;;9.17;100.00
51299;BME280;37382;45.192;9.790;2024-03-07T02:26:18;101337.91;;;9.05;100.00
51299;BME280;37382;45.192;9.790;2024-03-07T02:28:46;101331.78;;;9.03;100.00
51299;BME280;37382;45.192;9.790;2024-03-07T02:31:13;101328.09;;;8.87;100.00
51299;BME280;37382;45.192;9.790;2024-03-07T02:33:40;101329.41;;;9.00;100.00
51299;BME280;37382;45.192;9.790;2024-03-07T02:36:09;101328.94;;;8.96;100.00
51299;BME280;37382;45.192;9.790;2024-03-07T02:38:36;101333.88;;;8.84;100.00
51299;BME280;37382;45.192;9.790;2024-03-07T02:41:03;101327.75;;;8.99;100.00
51299;BME280;37382;45.192;9.790;2024-03-07T02:43:31;101327.72;;;9.07;100.00
51299;BME280;37382;45.192;9.790;2024-03-07T02:45:58;101328.59;;;8.99;100.00
51299;BME280;37382;45.192;9.790;2024-03-07T02:48:26;101327.53;;;9.17;100.00
51299;BME280;37382;45.192;9.790;2024-03-07T02:50:53;101329.06;;;9.11;100.00
51299;BME280;37382;45.192;9.790;2024-03-07T02:53:21;101329.06;;;9.11;100.00
51299;BME280;37382;45.192;9.790;2024-03-07T02:55:48;101334.84;;;9.00;100.00
51299;BME280;37382;45.192;9.790;2024-03-07T02:58:16;101327.78;;;8.82;100.00
51299;BME280;37382;45.192;9.790;2024-03-07T03:00:44;101330.00;;;8.79;100.00
51299;BME280;37382;45.192;9.790;2024-03-07T03:03:11;101330.34;;;8.76;100.00
51299;BME280;37382;45.192;9.790;2024-03-07T03:05:39;101324.06;;;8.50;100.00
51299;BME280;37382;45.192;9.790;2024-03-07T03:08:07;101321.69;;;8.47;100.00
51299;BME280;37382;45.192;9.790;2024-03-07T03:10:34;101323.34;;;8.15;100.00
51299;BME280;37382;45.192;9.790;2024-03-07T03:13:01;101322.63;;;7.97;100.00
51299;BME280;37382;45.192;9.790;2024-03-07T03:15:29;101325.78;;;7.76;100.00
51299;BME280;37382;45.192;9.790;2024-03-07T03:17:58;101327.94;;;7.56;100.00
51299;BME280;37382;45.192;9.790;2024-03-07T03:20:29;101323.34;;;7.48;100.00
51299;BME280;37382;45.192;9.790;2024-03-07T03:23:06;101334.09;;;7.74;100.00
51299;BME280;37382;45.192;9.790;2024-03-07T03:25:47;101316.00;;;7.91;100.00
51299;BME280;37382;45.192;9.790;2024-03-07T03:28:18;101325.00;;;8.00;100.00
51299;BME280;37382;45.192;9.790;2024-03-07T03:30:48;101332.31;;;8.08;100.00
51299;BME280;37382;45.192;9.790;2024-03-07T03:33:16;101337.53;;;7.93;100.00
51299;BME280;37382;45.192;9.790;2024-03-07T03:35:44;101340.41;;;7.91;100.00
51299;BME280;37382;45.192;9.790;2024-03-07T03:38:12;101334.44;;;7.79;100.00
51299;BME280;37382;45.192;9.790;2024-03-07T03:40:39;101334.06;;;7.66;100.00
51299;BME280;37382;45.192;9.790;2024-03-07T03:43:07;101335.56;;;7.60;100.00
51299;BME280;37382;45.192;9.790;2024-03-07T03:45:34;101338.28;;;7.69;100.00
51299;BME280;37382;45.192;9.790;2024-03-07T03:48:03;101338.34;;;7.77;100.00
51299;BME280;37382;45.192;9.790;2024-03-07T03:50:31;101328.56;;;7.92;100.00
51299;BME280;37382;45.192;9.790;2024-03-07T03:52:58;101331.97;;;8.02;100.00
51299;BME280;37382;45.192;9.790;2024-03-07T03:55:28;101324.19;;;7.99;100.00
51299;BME280;37382;45.192;9.790;2024-03-07T03:57:56;101331.81;;;8.12;100.00
51299;BME280;37382;45.192;9.790;2024-03-07T04:00:23;101324.84;;;8.10;100.00
51299;BME280;37382;45.192;9.790;2024-03-07T04:02:51;101321.97;;;8.11;100.00
51299;BME280;37382;45.192;9.790;2024-03-07T04:05:20;101327.06;;;7.98;100.00
51299;BME280;37382;45.192;9.790;2024-03-07T04:07:49;101324.69;;;7.95;100.00
51299;BME280;37382;45.192;9.790;2024-03-07T04:10:17;101326.84;;;7.91;100.00
51299;BME280;37382;45.192;9.790;2024-03-07T04:12:45;101327.56;;;7.93;100.00
51299;BME280;37382;45.192;9.790;2024-03-07T04:15:15;101327.34;;;7.78;100.00
51299;BME280;37382;45.192;9.790;2024-03-07T04:17:46;101329.66;;;7.73;100.00
51299;BME280;37382;45.192;9.790;2024-03-07T04:20:15;101323.09;;;7.84;100.00
51299;BME280;37382;45.192;9.790;2024-03-07T04:22:47;101325.13;;;7.82;100.00
51299;BME280;37382;45.192;9.790;2024-03-07T04:25:17;101322.91;;;7.77;100.00
51299;BME280;37382;45.192;9.790;2024-03-07T04:27:45;101320.53;;;7.74;100.00
51299;BME280;37382;45.192;9.790;2024-03-07T04:30:13;101315.53;;;7.45;100.00
51299;BME280;37382;45.192;9.790;2024-03-07T04:32:44;101327.88;;;7.39;100.00
51299;BME280;37382;45.192;9.790;2024-03-07T04:35:11;101324.88;;;7.16;100.00
51299;BME280;37382;45.192;9.790;2024-03-07T04:37:43;101333.63;;;7.10;100.00
51299;BME280;37382;45.192;9.790;2024-03-07T04:40:10;101328.59;;;6.89;100.00
51299;BME280;37382;45.192;9.790;2024-03-07T04:42:48;101326.06;;;6.87;100.00
51299;BME280;37382;45.192;9.790;2024-03-07T04:45:19;101326.94;;;6.70;100.00
51299;BME280;37382;45.192;9.790;2024-03-07T04:47:47;101323.47;;;6.78;100.00
51299;BME280;37382;45.192;9.790;2024-03-07T04:50:16;101328.78;;;6.87;100.00
51299;BME280;37382;45.192;9.790;2024-03-07T04:52:47;101329.00;;;6.76;100.00
51299;BME280;37382;45.192;9.790;2024-03-07T04:55:16;101331.94;;;6.56;100.00
51299;BME280;37382;45.192;9.790;2024-03-07T04:57:44;101327.50;;;6.73;100.00
51299;BME280;37382;45.192;9.790;2024-03-07T05:00:13;101325.28;;;6.51;100.00
51299;BME280;37382;45.192;9.790;2024-03-07T05:02:47;101329.38;;;6.55;100.00
51299;BME280;37382;45.192;9.790;2024-03-07T05:05:16;101328.47;;;6.46;100.00
51299;BME280;37382;45.192;9.790;2024-03-07T05:07:51;101325.53;;;6.39;100.00
51299;BME280;37382;45.192;9.790;2024-03-07T05:10:19;101332.25;;;6.35;100.00
51299;BME280;37382;45.192;9.790;2024-03-07T05:12:48;101329.94;;;6.40;100.00
51299;BME280;37382;45.192;9.790;2024-03-07T05:15:18;101328.94;;;6.41;100.00
51299;BME280;37382;45.192;9.790;2024-03-07T05:17:45;101329.06;;;6.58;100.00
51299;BME280;37382;45.192;9.790;2024-03-07T05:20:13;101330.25;;;6.82;100.00
51299;BME280;37382;45.192;9.790;2024-03-07T05:22:41;101332.91;;;7.00;100.00
51299;BME280;37382;45.192;9.790;2024-03-07T05:25:14;101334.13;;;7.05;100.00
51299;BME280;37382;45.192;9.790;2024-03-07T05:27:45;101335.09;;;6.96;100.00
51299;BME280;37382;45.192;9.790;2024-03-07T05:30:13;101338.75;;;6.87;100.00
51299;BME280;37382;45.192;9.790;2024-03-07T05:32:43;101332.09;;;6.81;100.00
51299;BME280;37382;45.192;9.790;2024-03-07T05:35:10;101347.59;;;6.97;100.00
51299;BME280;37382;45.192;9.790;2024-03-07T05:37:38;101345.25;;;7.02;100.00
51299;BME280;37382;45.192;9.790;2024-03-07T05:40:09;101354.06;;;7.04;100.00
51299;BME280;37382;45.192;9.790;2024-03-07T05:42:37;101354.03;;;6.96;100.00
51299;BME280;37382;45.192;9.790;2024-03-07T05:45:04;101357.28;;;6.82;100.00
51299;BME280;37382;45.192;9.790;2024-03-07T05:47:35;101362.78;;;6.90;100.00
51299;BME280;37382;45.192;9.790;2024-03-07T05:50:03;101362.66;;;7.00;100.00
51299;BME280;37382;45.192;9.790;2024-03-07T05:52:31;101364.53;;;6.99;100.00
51299;BME280;37382;45.192;9.790;2024-03-07T05:54:59;101363.00;;;6.79;100.00
51299;BME280;37382;45.192;9.790;2024-03-07T05:57:26;101366.78;;;6.86;100.00
51299;BME280;37382;45.192;9.790;2024-03-07T05:59:54;101367.25;;;6.81;100.00
51299;BME280;37382;45.192;9.790;2024-03-07T06:02:21;101374.44;;;6.90;100.00
51299;BME280;37382;45.192;9.790;2024-03-07T06:04:49;101373.16;;;6.76;100.00
51299;BME280;37382;45.192;9.790;2024-03-07T06:07:16;101378.47;;;6.68;100.00
51299;BME280;37382;45.192;9.790;2024-03-07T06:09:44;101376.00;;;6.75;100.00
51299;BME280;37382;45.192;9.790;2024-03-07T06:12:11;101381.25;;;6.76;100.00
51299;BME280;37382;45.192;9.790;2024-03-07T06:14:52;101376.94;;;6.84;100.00
51299;BME280;37382;45.192;9.790;2024-03-07T06:17:20;101379.47;;;6.85;100.00
51299;BME280;37382;45.192;9.790;2024-03-07T06:19:50;101384.94;;;6.93;100.00
51299;BME280;37382;45.192;9.790;2024-03-07T06:22:18;101385.72;;;6.86;100.00
51299;BME280;37382;45.192;9.790;2024-03-07T06:24:45;101388.91;;;6.81;100.00
51299;BME280;37382;45.192;9.790;2024-03-07T06:27:13;101387.75;;;6.84;100.00
51299;BME280;37382;45.192;9.790;2024-03-07T06:29:54;101389.81;;;6.90;100.00
51299;BME280;37382;45.192;9.790;2024-03-07T06:32:22;101382.50;;;6.82;100.00
51299;BME280;37382;45.192;9.790;2024-03-07T06:34:50;101389.91;;;7.06;100.00
51299;BME280;37382;45.192;9.790;2024-03-07T06:37:18;101395.22;;;7.16;100.00
51299;BME280;37382;45.192;9.790;2024-03-07T06:39:46;101391.88;;;7.22;100.00
51299;BME280;37382;45.192;9.790;2024-03-07T06:42:14;101393.28;;;7.26;100.00
51299;BME280;37382;45.192;9.790;2024-03-07T06:44:42;101395.94;;;7.00;100.00
51299;BME280;37382;45.192;9.790;2024-03-07T06:47:10;101398.91;;;7.07;100.00
51299;BME280;37382;45.192;9.790;2024-03-07T06:49:38;101399.69;;;6.99;100.00
51299;BME280;37382;45.192;9.790;2024-03-07T06:52:07;101398.25;;;6.87;100.00
51299;BME280;37382;45.192;9.790;2024-03-07T06:54:35;101401.88;;;7.22;100.00
51299;BME280;37382;45.192;9.790;2024-03-07T06:57:03;101400.31;;;6.93;100.00
51299;BME280;37382;45.192;9.790;2024-03-07T06:59:30;101401.38;;;7.00;100.00
51299;BME280;37382;45.192;9.790;2024-03-07T07:01:59;101397.03;;;6.63;100.00
51299;BME280;37382;45.192;9.790;2024-03-07T07:04:26;101403.59;;;6.61;100.00
51299;BME280;37382;45.192;9.790;2024-03-07T07:06:59;101404.13;;;6.64;100.00
51299;BME280;37382;45.192;9.790;2024-03-07T07:09:28;101400.41;;;6.65;100.00
51299;BME280;37382;45.192;9.790;2024-03-07T07:11:56;101401.66;;;6.71;100.00
51299;BME280;37382;45.192;9.790;2024-03-07T07:14:23;101412.63;;;6.69;100.00
51299;BME280;37382;45.192;9.790;2024-03-07T07:16:51;101408.53;;;6.65;100.00
51299;BME280;37382;45.192;9.790;2024-03-07T07:19:20;101418.28;;;6.58;100.00
51299;BME280;37382;45.192;9.790;2024-03-07T07:21:47;101420.06;;;6.67;100.00
51299;BME280;37382;45.192;9.790;2024-03-07T07:24:20;101419.63;;;6.80;100.00
51299;BME280;37382;45.192;9.790;2024-03-07T07:26:51;101424.03;;;6.99;100.00
51299;BME280;37382;45.192;9.790;2024-03-07T07:29:18;101416.81;;;7.08;100.00
51299;BME280;37382;45.192;9.790;2024-03-07T07:31:46;101417.44;;;7.02;100.00
51299;BME280;37382;45.192;9.790;2024-03-07T07:34:13;101418.75;;;7.16;100.00
51299;BME280;37382;45.192;9.790;2024-03-07T07:36:41;101414.59;;;7.29;100.00
51299;BME280;37382;45.192;9.790;2024-03-07T07:39:08;101422.75;;;7.11;100.00
51299;BME280;37382;45.192;9.790;2024-03-07T07:41:44;101427.19;;;7.39;100.00
51299;BME280;37382;45.192;9.790;2024-03-07T07:44:11;101422.97;;;7.44;100.00
51299;BME280;37382;45.192;9.790;2024-03-07T07:46:39;101416.72;;;7.44;100.00
51299;BME280;37382;45.192;9.790;2024-03-07T07:49:07;101419.59;;;7.51;100.00
51299;BME280;37382;45.192;9.790;2024-03-07T07:51:35;101417.56;;;7.79;100.00
51299;BME280;37382;45.192;9.790;2024-03-07T07:54:02;101415.66;;;7.71;100.00
51299;BME280;37382;45.192;9.790;2024-03-07T07:56:30;101415.91;;;7.52;100.00
51299;BME280;37382;45.192;9.790;2024-03-07T07:58:58;101413.16;;;7.43;100.00
51299;BME280;37382;45.192;9.790;2024-03-07T08:01:25;101419.41;;;7.44;100.00
51299;BME280;37382;45.192;9.790;2024-03-07T08:03:53;101418.34;;;7.37;100.00
51299;BME280;37382;45.192;9.790;2024-03-07T08:06:21;101417.22;;;7.47;100.00
51299;BME280;37382;45.192;9.790;2024-03-07T08:08:48;101413.16;;;7.43;100.00
51299;BME280;37382;45.192;9.790;2024-03-07T08:11:18;101416.81;;;7.69;100.00
51299;BME280;37382;45.192;9.790;2024-03-07T08:13:45;101417.94;;;7.50;100.00
51299;BME280;37382;45.192;9.790;2024-03-07T08:16:16;101415.16;;;7.68;100.00
51299;BME280;37382;45.192;9.790;2024-03-07T08:18:44;101415.00;;;7.69;100.00
51299;BME280;37382;45.192;9.790;2024-03-07T08:21:11;101422.31;;;7.77;100.00
51299;BME280;37382;45.192;9.790;2024-03-07T08:23:39;101425.09;;;7.93;100.00
51299;BME280;37382;45.192;9.790;2024-03-07T08:26:07;101423.59;;;8.07;100.00
51299;BME280;37382;45.192;9.790;2024-03-07T08:28:34;101426.00;;;8.18;100.00
51299;BME280;37382;45.192;9.790;2024-03-07T08:31:02;101418.81;;;8.60;100.00
51299;BME280;37382;45.192;9.790;2024-03-07T08:33:30;101416.94;;;8.52;100.00
51299;BME280;37382;45.192;9.790;2024-03-07T08:36:00;101410.50;;;8.53;100.00
51299;BME280;37382;45.192;9.790;2024-03-07T08:38:28;101403.53;;;8.51;100.00
51299;BME280;37382;45.192;9.790;2024-03-07T08:40:56;101410.16;;;8.65;100.00
51299;BME280;37382;45.192;9.790;2024-03-07T08:43:24;101407.94;;;8.60;100.00
51299;BME280;37382;45.192;9.790;2024-03-07T08:45:51;101411.34;;;8.95;100.00
51299;BME280;37382;45.192;9.790;2024-03-07T08:48:18;101412.53;;;8.84;100.00
51299;BME280;37382;45.192;9.790;2024-03-07T08:50:47;101411.50;;;9.26;100.00
51299;BME280;37382;45.192;9.790;2024-03-07T08:53:15;101418.78;;;9.18;100.00
51299;BME280;37382;45.192;9.790;2024-03-07T08:55:43;101413.38;;;9.10;100.00
51299;BME280;37382;45.192;9.790;2024-03-07T08:58:10;101407.78;;;9.03;100.00
51299;BME280;37382;45.192;9.790;2024-03-07T09:00:38;101413.03;;;9.29;100.00
51299;BME280;37382;45.192;9.790;2024-03-07T09:03:06;101403.66;;;9.32;100.00
51299;BME280;37382;45.192;9.790;2024-03-07T09:05:39;101414.84;;;9.53;100.00
51299;BME280;37382;45.192;9.790;2024-03-07T09:08:07;101405.94;;;9.68;100.00
51299;BME280;37382;45.192;9.790;2024-03-07T09:10:35;101405.47;;;9.56;100.00
51299;BME280;37382;45.192;9.790;2024-03-07T09:13:02;101407.84;;;9.59;100.00
51299;BME280;37382;45.192;9.790;2024-03-07T09:15:30;101407.22;;;9.88;100.00
51299;BME280;37382;45.192;9.790;2024-03-07T09:17:58;101411.88;;;9.71;100.00
51299;BME280;37382;45.192;9.790;2024-03-07T09:20:26;101414.28;;;9.66;100.00
51299;BME280;37382;45.192;9.790;2024-03-07T09:22:56;101407.34;;;9.95;100.00
51299;BME280;37382;45.192;9.790;2024-03-07T09:25:24;101418.81;;;9.82;100.00
51299;BME280;37382;45.192;9.790;2024-03-07T09:27:53;101413.56;;;9.81;100.00
51299;BME280;37382;45.192;9.790;2024-03-07T09:30:22;101414.91;;;10.16;100.00
51299;BME280;37382;45.192;9.790;2024-03-07T09:32:54;101415.56;;;10.49;100.00
51299;BME280;37382;45.192;9.790;2024-03-07T09:35:25;101416.16;;;10.05;100.00
51299;BME280;37382;45.192;9.790;2024-03-07T09:37:53;101410.06;;;10.35;100.00
51299;BME280;37382;45.192;9.790;2024-03-07T09:40:22;101416.78;;;10.47;100.00
51299;BME280;37382;45.192;9.790;2024-03-07T09:42:55;101417.19;;;10.27;100.00
51299;BME280;37382;45.192;9.790;2024-03-07T09:45:28;101411.41;;;10.30;100.00
51299;BME280;37382;45.192;9.790;2024-03-07T09:47:57;101418.66;;;10.46;100.00
51299;BME280;37382;45.192;9.790;2024-03-07T09:50:26;101421.19;;;10.71;100.00
51299;BME280;37382;45.192;9.790;2024-03-07T09:52:56;101414.13;;;10.62;100.00
51299;BME280;37382;45.192;9.790;2024-03-07T09:55:25;101420.34;;;10.71;100.00
51299;BME280;37382;45.192;9.790;2024-03-07T09:57:54;101424.22;;;10.76;100.00
51299;BME280;37382;45.192;9.790;2024-03-07T10:00:25;101424.03;;;10.78;100.00
51299;BME280;37382;45.192;9.790;2024-03-07T10:03:08;101425.03;;;11.00;100.00
51299;BME280;37382;45.192;9.790;2024-03-07T10:05:38;101431.56;;;11.14;100.00
51299;BME280;37382;45.192;9.790;2024-03-07T10:08:06;101425.78;;;10.94;100.00
51299;BME280;37382;45.192;9.790;2024-03-07T10:10:35;101424.06;;;10.93;100.00
51299;BME280;37382;45.192;9.790;2024-03-07T10:13:03;101430.25;;;11.25;100.00
51299;BME280;37382;45.192;9.790;2024-03-07T10:15:32;101428.94;;;11.35;100.00
51299;BME280;37382;45.192;9.790;2024-03-07T10:18:00;101425.41;;;11.35;100.00
51299;BME280;37382;45.192;9.790;2024-03-07T10:20:29;101423.81;;;11.41;100.00
51299;BME280;37382;45.192;9.790;2024-03-07T10:22:57;101423.47;;;11.20;100.00
51299;BME280;37382;45.192;9.790;2024-03-07T10:25:25;101428.50;;;11.47;100.00
51299;BME280;37382;45.192;9.790;2024-03-07T10:27:56;101428.31;;;11.48;100.00
51299;BME280;37382;45.192;9.790;2024-03-07T10:30:27;101430.75;;;11.58;100.00
51299;BME280;37382;45.192;9.790;2024-03-07T10:32:56;101421.84;;;12.09;100.00
51299;BME280;37382;45.192;9.790;2024-03-07T10:35:27;101427.66;;;11.61;100.00
51299;BME280;37382;45.192;9.790;2024-03-07T10:37:57;101429.16;;;11.79;100.00
51299;BME280;37382;45.192;9.790;2024-03-07T10:40:33;101418.81;;;12.40;100.00
51299;BME280;37382;45.192;9.790;2024-03-07T10:43:09;101413.94;;;12.79;100.00
51299;BME280;37382;45.192;9.790;2024-03-07T10:45:57;101418.81;;;12.62;100.00
51299;BME280;37382;45.192;9.790;2024-03-07T10:48:29;101415.50;;;13.10;100.00
51299;BME280;37382;45.192;9.790;2024-03-07T10:51:16;101410.78;;;13.25;100.00
51299;BME280;37382;45.192;9.790;2024-03-07T10:53:54;101415.06;;;12.85;100.00
51299;BME280;37382;45.192;9.790;2024-03-07T10:56:56;101413.13;;;12.78;100.00
51299;BME280;37382;45.192;9.790;2024-03-07T10:59:27;101406.03;;;13.34;100.00
51299;BME280;37382;45.192;9.790;2024-03-07T11:04:32;101407.13;;;12.90;100.00
51299;BME280;37382;45.192;9.790;2024-03-07T11:07:01;101403.94;;;13.36;100.00
51299;BME280;37382;45.192;9.790;2024-03-07T11:09:29;101399.28;;;13.65;100.00
51299;BME280;37382;45.192;9.790;2024-03-07T11:12:01;101397.78;;;13.62;100.00
51299;BME280;37382;45.192;9.790;2024-03-07T11:14:32;101392.97;;;13.64;100.00
51299;BME280;37382;45.192;9.790;2024-03-07T11:17:02;101388.78;;;13.05;100.00
51299;BME280;37382;45.192;9.790;2024-03-07T11:19:32;101386.09;;;12.84;100.00
51299;BME280;37382;45.192;9.790;2024-03-07T11:22:05;101390.06;;;13.38;100.00
51299;BME280;37382;45.192;9.790;2024-03-07T11:25:05;101387.13;;;13.74;100.00
51299;BME280;37382;45.192;9.790;2024-03-07T11:27:38;101385.47;;;14.55;100.00
51299;BME280;37382;45.192;9.790;2024-03-07T11:30:07;101380.81;;;14.29;100.00
51299;BME280;37382;45.192;9.790;2024-03-07T11:32:37;101371.81;;;14.62;100.00
51299;BME280;37382;45.192;9.790;2024-03-07T11:35:11;101370.56;;;14.98;100.00
51299;BME280;37382;45.192;9.790;2024-03-07T11:37:44;101370.94;;;15.41;100.00
51299;BME280;37382;45.192;9.790;2024-03-07T11:42:53;101366.16;;;15.89;100.00
51299;BME280;37382;45.192;9.790;2024-03-07T11:45:21;101358.38;;;15.72;100.00
51299;BME280;37382;45.192;9.790;2024-03-07T11:47:58;101358.59;;;14.79;100.00
51299;BME280;37382;45.192;9.790;2024-03-07T11:50:39;101353.94;;;14.92;100.00
51299;BME280;37382;45.192;9.790;2024-03-07T11:53:07;101346.06;;;15.43;100.00
51299;BME280;37382;45.192;9.790;2024-03-07T11:55:37;101349.09;;;14.88;100.00
51299;BME280;37382;45.192;9.790;2024-03-07T11:58:17;101341.50;;;14.83;100.00
51299;BME280;37382;45.192;9.790;2024-03-07T12:00:46;101334.72;;;15.26;100.00
51299;BME280;37382;45.192;9.790;2024-03-07T12:03:15;101326.91;;;15.23;100.00
51299;BME280;37382;45.192;9.790;2024-03-07T12:05:45;101323.66;;;15.59;100.00
51299;BME280;37382;45.192;9.790;2024-03-07T12:08:14;101318.84;;;15.41;100.00
51299;BME280;37382;45.192;9.790;2024-03-07T12:10:44;101326.94;;;15.03;100.00
51299;BME280;37382;45.192;9.790;2024-03-07T12:13:16;101316.06;;;15.55;100.00
51299;BME280;37382;45.192;9.790;2024-03-07T12:15:44;101302.63;;;16.24;100.00
51299;BME280;37382;45.192;9.790;2024-03-07T12:18:12;101306.78;;;16.33;100.00
51299;BME280;37382;45.192;9.790;2024-03-07T12:20:45;101300.03;;;16.86;100.00
51299;BME280;37382;45.192;9.790;2024-03-07T12:23:23;101296.81;;;16.64;100.00
51299;BME280;37382;45.192;9.790;2024-03-07T12:26:03;101288.72;;;17.19;100.00
51299;BME280;37382;45.192;9.790;2024-03-07T12:28:31;101286.06;;;17.31;100.00
51299;BME280;37382;45.192;9.790;2024-03-07T12:31:02;101298.50;;;16.90;100.00
51299;BME280;37382;45.192;9.790;2024-03-07T12:33:30;101289.81;;;16.11;100.00
51299;BME280;37382;45.192;9.790;2024-03-07T12:36:02;101283.44;;;16.99;100.00
51299;BME280;37382;45.192;9.790;2024-03-07T12:38:42;101281.16;;;17.15;100.00
51299;BME280;37382;45.192;9.790;2024-03-07T12:41:11;101278.94;;;17.42;100.00
51299;BME280;37382;45.192;9.790;2024-03-07T12:43:44;101274.50;;;17.41;100.00
51299;BME280;37382;45.192;9.790;2024-03-07T12:46:15;101279.38;;;17.20;100.00
51299;BME280;37382;45.192;9.790;2024-03-07T12:48:44;101267.47;;;16.39;100.00
51299;BME280;37382;45.192;9.790;2024-03-07T12:51:14;101266.63;;;16.64;100.00
51299;BME280;37382;45.192;9.790;2024-03-07T12:53:47;101264.06;;;16.12;100.00
51299;BME280;37382;45.192;9.790;2024-03-07T12:56:16;101264.03;;;15.87;100.00
51299;BME280;37382;45.192;9.790;2024-03-07T12:58:47;101264.22;;;15.40;100.00
51299;BME280;37382;45.192;9.790;2024-03-07T13:01:18;101258.03;;;16.53;100.00
51299;BME280;37382;45.192;9.790;2024-03-07T13:03:46;101254.75;;;16.45;100.00